Alta Loma, California
Current Conditions -  °F | °C
As of 4:53 PM on Sunday 23 Nov 2014 (Local Time) from KONT Reporting Station
Broken Clouds Broken Clouds  
Wind Chill: 73°   Ceiling: 22000
Heat Index: 73°   Visibility: 10mi
Dew Point: -15°   Wind: 9mph
Humidity: 3%   Direction: 30°NNE
Pressure: 30.1"   Gusts: 18mph
Location:  34.12°N, 117.6°W
Report Text: KONT 240053Z 03008G16KT 10SM BKN220 23/M26 A3010 RMK AO2 SLP184 T02281261
Loading
Personal Weather Stations






























Interactive Weather Map New forecast layout! Learn more

10-Day Weather Forecast

Advertisements
Track Severe Weather on mobile